sensor_id;sensor_type;location;lat;lon;timestamp;temperature;humidity
26623;DHT22;14254;50.968;5.366;2023-04-25T00:00:26;8.20;99.90
26623;DHT22;14254;50.968;5.366;2023-04-25T00:02:52;8.10;99.90
26623;DHT22;14254;50.968;5.366;2023-04-25T00:05:17;8.10;99.90
26623;DHT22;14254;50.968;5.366;2023-04-25T00:07:44;8.10;99.90
26623;DHT22;14254;50.968;5.366;2023-04-25T00:10:11;8.20;99.90
26623;DHT22;14254;50.968;5.366;2023-04-25T00:12:37;8.30;99.90
26623;DHT22;14254;50.968;5.366;2023-04-25T00:15:04;8.30;99.90
26623;DHT22;14254;50.968;5.366;2023-04-25T00:17:30;8.40;99.90
26623;DHT22;14254;50.968;5.366;2023-04-25T00:19:56;8.20;99.90
26623;DHT22;14254;50.968;5.366;2023-04-25T00:22:23;8.30;99.90
26623;DHT22;14254;50.968;5.366;2023-04-25T00:24:49;8.30;99.90
26623;DHT22;14254;50.968;5.366;2023-04-25T00:27:15;8.50;99.90
26623;DHT22;14254;50.968;5.366;2023-04-25T00:29:41;8.50;99.90
26623;DHT22;14254;50.968;5.366;2023-04-25T00:32:06;8.60;99.90
26623;DHT22;14254;50.968;5.366;2023-04-25T00:34:32;8.50;99.90
26623;DHT22;14254;50.968;5.366;2023-04-25T00:36:58;8.40;99.90
26623;DHT22;14254;50.968;5.366;2023-04-25T00:39:23;8.40;99.90
26623;DHT22;14254;50.968;5.366;2023-04-25T00:41:50;8.40;99.90
26623;DHT22;14254;50.968;5.366;2023-04-25T00:44:18;8.40;99.90
26623;DHT22;14254;50.968;5.366;2023-04-25T00:46:47;8.30;99.90
26623;DHT22;14254;50.968;5.366;2023-04-25T00:49:13;8.20;99.90
26623;DHT22;14254;50.968;5.366;2023-04-25T00:51:41;8.30;99.90
26623;DHT22;14254;50.968;5.366;2023-04-25T00:54:07;8.20;99.90
26623;DHT22;14254;50.968;5.366;2023-04-25T00:56:33;8.10;99.90
26623;DHT22;14254;50.968;5.366;2023-04-25T00:58:58;8.00;99.90
26623;DHT22;14254;50.968;5.366;2023-04-25T01:01:24;8.00;99.90
26623;DHT22;14254;50.968;5.366;2023-04-25T01:03:50;8.10;99.90
26623;DHT22;14254;50.968;5.366;2023-04-25T01:06:17;8.00;99.90
26623;DHT22;14254;50.968;5.366;2023-04-25T01:08:43;8.00;99.90
26623;DHT22;14254;50.968;5.366;2023-04-25T01:11:09;7.90;99.90
26623;DHT22;14254;50.968;5.366;2023-04-25T01:13:35;7.90;99.90
26623;DHT22;14254;50.968;5.366;2023-04-25T01:16:02;7.90;99.90
26623;DHT22;14254;50.968;5.366;2023-04-25T01:18:28;7.80;99.90
26623;DHT22;14254;50.968;5.366;2023-04-25T01:20:54;7.80;99.90
26623;DHT22;14254;50.968;5.366;2023-04-25T01:23:21;7.90;99.90
26623;DHT22;14254;50.968;5.366;2023-04-25T01:25:48;7.80;99.90
26623;DHT22;14254;50.968;5.366;2023-04-25T01:28:14;7.80;99.90
26623;DHT22;14254;50.968;5.366;2023-04-25T01:30:40;7.80;99.90
26623;DHT22;14254;50.968;5.366;2023-04-25T01:33:07;7.90;99.90
26623;DHT22;14254;50.968;5.366;2023-04-25T01:35:33;7.90;99.90
26623;DHT22;14254;50.968;5.366;2023-04-25T01:37:59;7.90;99.90
26623;DHT22;14254;50.968;5.366;2023-04-25T01:40:25;7.90;99.90
26623;DHT22;14254;50.968;5.366;2023-04-25T01:42:51;8.10;99.90
26623;DHT22;14254;50.968;5.366;2023-04-25T01:45:17;8.30;99.90
26623;DHT22;14254;50.968;5.366;2023-04-25T01:47:44;8.20;99.90
26623;DHT22;14254;50.968;5.366;2023-04-25T01:50:14;8.10;99.90
26623;DHT22;14254;50.968;5.366;2023-04-25T01:52:40;8.00;99.90
26623;DHT22;14254;50.968;5.366;2023-04-25T01:55:06;7.90;99.90
26623;DHT22;14254;50.968;5.366;2023-04-25T01:57:32;7.90;99.90
26623;DHT22;14254;50.968;5.366;2023-04-25T02:00:00;7.90;99.90
26623;DHT22;14254;50.968;5.366;2023-04-25T02:02:26;7.90;99.90
26623;DHT22;14254;50.968;5.366;2023-04-25T02:04:52;8.00;99.90
26623;DHT22;14254;50.968;5.366;2023-04-25T02:07:17;7.90;99.90
26623;DHT22;14254;50.968;5.366;2023-04-25T02:09:43;8.00;99.90
26623;DHT22;14254;50.968;5.366;2023-04-25T02:12:10;7.80;99.90
26623;DHT22;14254;50.968;5.366;2023-04-25T02:14:36;7.70;99.90
26623;DHT22;14254;50.968;5.366;2023-04-25T02:17:02;7.70;99.90
26623;DHT22;14254;50.968;5.366;2023-04-25T02:19:28;7.70;99.90
26623;DHT22;14254;50.968;5.366;2023-04-25T02:21:53;7.60;99.90
26623;DHT22;14254;50.968;5.366;2023-04-25T02:24:19;7.50;99.90
26623;DHT22;14254;50.968;5.366;2023-04-25T02:26:45;7.40;99.90
26623;DHT22;14254;50.968;5.366;2023-04-25T02:29:12;7.50;99.90
26623;DHT22;14254;50.968;5.366;2023-04-25T02:31:38;7.60;99.90
26623;DHT22;14254;50.968;5.366;2023-04-25T02:34:03;7.70;99.90
26623;DHT22;14254;50.968;5.366;2023-04-25T02:36:30;7.80;99.90
26623;DHT22;14254;50.968;5.366;2023-04-25T02:38:59;7.80;99.90
26623;DHT22;14254;50.968;5.366;2023-04-25T02:41:25;7.80;99.90
26623;DHT22;14254;50.968;5.366;2023-04-25T02:43:51;7.80;99.90
26623;DHT22;14254;50.968;5.366;2023-04-25T02:46:17;7.80;99.90
26623;DHT22;14254;50.968;5.366;2023-04-25T02:48:42;7.70;99.90
26623;DHT22;14254;50.968;5.366;2023-04-25T02:51:08;7.60;99.90
26623;DHT22;14254;50.968;5.366;2023-04-25T02:53:34;7.50;99.90
26623;DHT22;14254;50.968;5.366;2023-04-25T02:56:00;7.60;99.90
26623;DHT22;14254;50.968;5.366;2023-04-25T02:58:26;7.70;99.90
26623;DHT22;14254;50.968;5.366;2023-04-25T03:00:52;7.60;99.90
26623;DHT22;14254;50.968;5.366;2023-04-25T03:03:18;7.40;99.90
26623;DHT22;14254;50.968;5.366;2023-04-25T03:05:49;7.30;99.90
26623;DHT22;14254;50.968;5.366;2023-04-25T03:08:16;7.30;99.90
26623;DHT22;14254;50.968;5.366;2023-04-25T03:10:42;7.40;99.90
26623;DHT22;14254;50.968;5.366;2023-04-25T03:13:08;7.30;99.90
26623;DHT22;14254;50.968;5.366;2023-04-25T03:15:35;7.40;99.90
26623;DHT22;14254;50.968;5.366;2023-04-25T03:18:00;7.30;99.90
26623;DHT22;14254;50.968;5.366;2023-04-25T03:20:26;7.30;99.90
26623;DHT22;14254;50.968;5.366;2023-04-25T03:22:52;7.40;99.90
26623;DHT22;14254;50.968;5.366;2023-04-25T03:25:17;7.50;99.90
26623;DHT22;14254;50.968;5.366;2023-04-25T03:27:43;7.50;99.90
26623;DHT22;14254;50.968;5.366;2023-04-25T03:30:09;7.60;99.90
26623;DHT22;14254;50.968;5.366;2023-04-25T03:32:35;7.60;99.90
26623;DHT22;14254;50.968;5.366;2023-04-25T03:35:01;7.60;99.90
26623;DHT22;14254;50.968;5.366;2023-04-25T03:37:26;7.60;99.90
26623;DHT22;14254;50.968;5.366;2023-04-25T03:39:52;7.70;99.90
26623;DHT22;14254;50.968;5.366;2023-04-25T03:42:17;7.70;99.90
26623;DHT22;14254;50.968;5.366;2023-04-25T03:44:43;7.70;99.90
26623;DHT22;14254;50.968;5.366;2023-04-25T03:47:09;7.70;99.90
26623;DHT22;14254;50.968;5.366;2023-04-25T03:49:35;7.80;99.90
26623;DHT22;14254;50.968;5.366;2023-04-25T03:52:02;7.80;99.90
26623;DHT22;14254;50.968;5.366;2023-04-25T03:54:27;7.70;99.90
26623;DHT22;14254;50.968;5.366;2023-04-25T03:56:53;7.60;99.90
26623;DHT22;14254;50.968;5.366;2023-04-25T03:59:19;7.50;99.90
26623;DHT22;14254;50.968;5.366;2023-04-25T04:01:44;7.40;99.90
26623;DHT22;14254;50.968;5.366;2023-04-25T04:04:10;7.30;99.90
26623;DHT22;14254;50.968;5.366;2023-04-25T04:06:36;7.30;99.90
26623;DHT22;14254;50.968;5.366;2023-04-25T04:09:02;7.10;99.90
26623;DHT22;14254;50.968;5.366;2023-04-25T04:11:28;7.00;99.90
26623;DHT22;14254;50.968;5.366;2023-04-25T04:13:54;6.80;99.90
26623;DHT22;14254;50.968;5.366;2023-04-25T04:16:19;6.70;99.90
26623;DHT22;14254;50.968;5.366;2023-04-25T04:18:46;6.60;99.90
26623;DHT22;14254;50.968;5.366;2023-04-25T04:21:11;6.60;99.90
26623;DHT22;14254;50.968;5.366;2023-04-25T04:23:37;6.60;99.90
26623;DHT22;14254;50.968;5.366;2023-04-25T04:26:03;6.60;99.90
26623;DHT22;14254;50.968;5.366;2023-04-25T04:28:28;6.60;99.90
26623;DHT22;14254;50.968;5.366;2023-04-25T04:30:55;6.60;99.90
26623;DHT22;14254;50.968;5.366;2023-04-25T04:33:21;6.60;99.90
26623;DHT22;14254;50.968;5.366;2023-04-25T04:35:50;6.60;99.90
26623;DHT22;14254;50.968;5.366;2023-04-25T04:38:17;6.70;99.90
26623;DHT22;14254;50.968;5.366;2023-04-25T04:40:44;6.70;99.90
26623;DHT22;14254;50.968;5.366;2023-04-25T04:43:09;6.80;99.90
26623;DHT22;14254;50.968;5.366;2023-04-25T04:45:36;7.00;99.90
26623;DHT22;14254;50.968;5.366;2023-04-25T04:48:05;7.00;99.90
26623;DHT22;14254;50.968;5.366;2023-04-25T04:50:31;7.00;99.90
26623;DHT22;14254;50.968;5.366;2023-04-25T04:52:58;7.00;99.90
26623;DHT22;14254;50.968;5.366;2023-04-25T04:55:23;7.00;99.90
26623;DHT22;14254;50.968;5.366;2023-04-25T04:57:49;7.20;99.90
26623;DHT22;14254;50.968;5.366;2023-04-25T05:00:15;7.40;99.90
26623;DHT22;14254;50.968;5.366;2023-04-25T05:02:41;7.30;99.90
26623;DHT22;14254;50.968;5.366;2023-04-25T05:05:07;7.40;99.90
26623;DHT22;14254;50.968;5.366;2023-04-25T05:07:33;7.60;99.90
26623;DHT22;14254;50.968;5.366;2023-04-25T05:09:59;7.60;99.90
26623;DHT22;14254;50.968;5.366;2023-04-25T05:12:25;7.70;99.90
26623;DHT22;14254;50.968;5.366;2023-04-25T05:14:50;7.80;99.90
26623;DHT22;14254;50.968;5.366;2023-04-25T05:17:16;7.80;99.90
26623;DHT22;14254;50.968;5.366;2023-04-25T05:19:42;7.80;99.90
26623;DHT22;14254;50.968;5.366;2023-04-25T05:22:08;8.00;99.90
26623;DHT22;14254;50.968;5.366;2023-04-25T05:24:33;8.00;99.90
26623;DHT22;14254;50.968;5.366;2023-04-25T05:26:59;7.80;99.90
26623;DHT22;14254;50.968;5.366;2023-04-25T05:29:25;7.70;99.90
26623;DHT22;14254;50.968;5.366;2023-04-25T05:31:50;7.70;99.90
26623;DHT22;14254;50.968;5.366;2023-04-25T05:34:16;7.60;99.90
26623;DHT22;14254;50.968;5.366;2023-04-25T05:36:42;7.50;99.90
26623;DHT22;14254;50.968;5.366;2023-04-25T05:39:07;7.60;99.90
26623;DHT22;14254;50.968;5.366;2023-04-25T05:41:34;7.60;99.90
26623;DHT22;14254;50.968;5.366;2023-04-25T05:44:00;7.50;99.90
26623;DHT22;14254;50.968;5.366;2023-04-25T05:46:25;7.40;99.90
26623;DHT22;14254;50.968;5.366;2023-04-25T05:48:51;7.60;99.90
26623;DHT22;14254;50.968;5.366;2023-04-25T05:51:16;7.70;99.90
26623;DHT22;14254;50.968;5.366;2023-04-25T05:53:43;7.70;99.90
26623;DHT22;14254;50.968;5.366;2023-04-25T05:56:09;7.70;99.90
26623;DHT22;14254;50.968;5.366;2023-04-25T05:58:35;7.70;99.90
26623;DHT22;14254;50.968;5.366;2023-04-25T06:01:01;7.90;99.90
26623;DHT22;14254;50.968;5.366;2023-04-25T06:03:28;8.10;99.90
26623;DHT22;14254;50.968;5.366;2023-04-25T06:05:53;8.30;99.90
26623;DHT22;14254;50.968;5.366;2023-04-25T06:08:19;8.40;99.90
26623;DHT22;14254;50.968;5.366;2023-04-25T06:10:45;8.50;99.90
26623;DHT22;14254;50.968;5.366;2023-04-25T06:13:11;8.80;99.90
26623;DHT22;14254;50.968;5.366;2023-04-25T06:15:36;8.80;99.90
26623;DHT22;14254;50.968;5.366;2023-04-25T06:18:02;8.70;99.90
26623;DHT22;14254;50.968;5.366;2023-04-25T06:20:28;8.80;99.90
26623;DHT22;14254;50.968;5.366;2023-04-25T06:22:54;8.70;99.90
26623;DHT22;14254;50.968;5.366;2023-04-25T06:25:20;8.80;99.90
26623;DHT22;14254;50.968;5.366;2023-04-25T06:27:45;8.80;99.90
26623;DHT22;14254;50.968;5.366;2023-04-25T06:30:11;8.80;99.90
26623;DHT22;14254;50.968;5.366;2023-04-25T06:32:38;8.90;99.90
26623;DHT22;14254;50.968;5.366;2023-04-25T06:35:04;9.20;99.90
26623;DHT22;14254;50.968;5.366;2023-04-25T06:37:30;9.40;99.90
26623;DHT22;14254;50.968;5.366;2023-04-25T06:39:56;9.40;99.90
26623;DHT22;14254;50.968;5.366;2023-04-25T06:42:22;9.20;99.90
26623;DHT22;14254;50.968;5.366;2023-04-25T06:44:47;9.30;99.90
26623;DHT22;14254;50.968;5.366;2023-04-25T06:47:14;9.30;99.90
26623;DHT22;14254;50.968;5.366;2023-04-25T06:49:39;9.70;99.90
26623;DHT22;14254;50.968;5.366;2023-04-25T06:52:05;9.90;99.90
26623;DHT22;14254;50.968;5.366;2023-04-25T06:54:30;9.20;99.90
26623;DHT22;14254;50.968;5.366;2023-04-25T06:56:56;9.10;99.90
26623;DHT22;14254;50.968;5.366;2023-04-25T06:59:22;9.10;99.90
26623;DHT22;14254;50.968;5.366;2023-04-25T07:01:48;9.00;99.90
26623;DHT22;14254;50.968;5.366;2023-04-25T07:04:14;8.80;99.90
26623;DHT22;14254;50.968;5.366;2023-04-25T07:06:39;8.60;99.90
26623;DHT22;14254;50.968;5.366;2023-04-25T07:09:11;8.70;99.90
26623;DHT22;14254;50.968;5.366;2023-04-25T07:11:37;8.90;99.90
26623;DHT22;14254;50.968;5.366;2023-04-25T07:14:03;9.20;99.90
26623;DHT22;14254;50.968;5.366;2023-04-25T07:16:29;9.50;99.90
26623;DHT22;14254;50.968;5.366;2023-04-25T07:18:55;9.60;99.90
26623;DHT22;14254;50.968;5.366;2023-04-25T07:21:20;9.60;99.90
26623;DHT22;14254;50.968;5.366;2023-04-25T07:23:46;9.60;99.90
26623;DHT22;14254;50.968;5.366;2023-04-25T07:26:12;9.70;99.90
26623;DHT22;14254;50.968;5.366;2023-04-25T07:28:38;9.60;99.90
26623;DHT22;14254;50.968;5.366;2023-04-25T07:31:04;9.90;99.90
26623;DHT22;14254;50.968;5.366;2023-04-25T07:33:30;9.80;99.90
26623;DHT22;14254;50.968;5.366;2023-04-25T07:35:56;10.00;99.90
26623;DHT22;14254;50.968;5.366;2023-04-25T07:38:22;10.10;99.90
26623;DHT22;14254;50.968;5.366;2023-04-25T07:40:48;10.20;99.90
26623;DHT22;14254;50.968;5.366;2023-04-25T07:43:14;10.50;99.90
26623;DHT22;14254;50.968;5.366;2023-04-25T07:45:43;10.40;99.90
26623;DHT22;14254;50.968;5.366;2023-04-25T07:48:08;10.40;99.90
26623;DHT22;14254;50.968;5.366;2023-04-25T07:50:34;10.40;99.90
26623;DHT22;14254;50.968;5.366;2023-04-25T07:53:00;10.10;99.90
26623;DHT22;14254;50.968;5.366;2023-04-25T07:55:26;10.30;99.90
26623;DHT22;14254;50.968;5.366;2023-04-25T07:57:51;9.90;99.90
26623;DHT22;14254;50.968;5.366;2023-04-25T08:00:17;9.70;99.90
26623;DHT22;14254;50.968;5.366;2023-04-25T08:02:43;9.80;99.90
26623;DHT22;14254;50.968;5.366;2023-04-25T08:05:09;9.90;99.90
26623;DHT22;14254;50.968;5.366;2023-04-25T08:07:37;10.00;99.90
26623;DHT22;14254;50.968;5.366;2023-04-25T08:10:05;10.40;99.90
26623;DHT22;14254;50.968;5.366;2023-04-25T08:12:31;10.20;99.90
26623;DHT22;14254;50.968;5.366;2023-04-25T08:14:57;10.00;99.90
26623;DHT22;14254;50.968;5.366;2023-04-25T08:17:23;9.90;99.90
26623;DHT22;14254;50.968;5.366;2023-04-25T08:19:49;9.80;99.90
26623;DHT22;14254;50.968;5.366;2023-04-25T08:22:14;10.20;99.90
26623;DHT22;14254;50.968;5.366;2023-04-25T08:24:41;10.40;99.90
26623;DHT22;14254;50.968;5.366;2023-04-25T08:27:07;10.30;99.90
26623;DHT22;14254;50.968;5.366;2023-04-25T08:29:33;10.60;99.90
26623;DHT22;14254;50.968;5.366;2023-04-25T08:31:59;10.10;99.90
26623;DHT22;14254;50.968;5.366;2023-04-25T08:34:25;9.80;99.90
26623;DHT22;14254;50.968;5.366;2023-04-25T08:36:51;9.80;99.90
26623;DHT22;14254;50.968;5.366;2023-04-25T08:39:17;9.70;99.90
26623;DHT22;14254;50.968;5.366;2023-04-25T08:41:43;9.80;99.90
26623;DHT22;14254;50.968;5.366;2023-04-25T08:44:13;9.60;99.90
26623;DHT22;14254;50.968;5.366;2023-04-25T08:46:40;9.60;99.90
26623;DHT22;14254;50.968;5.366;2023-04-25T08:49:07;9.70;99.90
26623;DHT22;14254;50.968;5.366;2023-04-25T08:51:36;9.50;99.90
26623;DHT22;14254;50.968;5.366;2023-04-25T08:54:09;9.30;99.90
26623;DHT22;14254;50.968;5.366;2023-04-25T08:56:45;9.40;99.90
26623;DHT22;14254;50.968;5.366;2023-04-25T08:59:14;9.50;99.90
26623;DHT22;14254;50.968;5.366;2023-04-25T09:01:40;9.80;99.90
26623;DHT22;14254;50.968;5.366;2023-04-25T09:04:06;10.30;99.90
26623;DHT22;14254;50.968;5.366;2023-04-25T09:06:32;10.70;99.90
26623;DHT22;14254;50.968;5.366;2023-04-25T09:09:05;10.40;99.90
26623;DHT22;14254;50.968;5.366;2023-04-25T09:11:31;10.20;99.90
26623;DHT22;14254;50.968;5.366;2023-04-25T09:14:33;10.20;99.90
26623;DHT22;14254;50.968;5.366;2023-04-25T09:17:00;10.10;99.90
26623;DHT22;14254;50.968;5.366;2023-04-25T09:19:27;10.40;99.90
26623;DHT22;14254;50.968;5.366;2023-04-25T09:21:59;11.00;99.90
26623;DHT22;14254;50.968;5.366;2023-04-25T09:27:04;12.00;99.90
26623;DHT22;14254;50.968;5.366;2023-04-25T09:29:38;11.70;99.90
26623;DHT22;14254;50.968;5.366;2023-04-25T09:32:21;10.90;99.90
26623;DHT22;14254;50.968;5.366;2023-04-25T09:34:51;11.20;99.90
26623;DHT22;14254;50.968;5.366;2023-04-25T09:37:21;11.40;99.90
26623;DHT22;14254;50.968;5.366;2023-04-25T09:39:53;11.20;99.90
26623;DHT22;14254;50.968;5.366;2023-04-25T09:42:23;10.90;99.90
26623;DHT22;14254;50.968;5.366;2023-04-25T09:44:52;11.00;99.90
26623;DHT22;14254;50.968;5.366;2023-04-25T09:47:19;11.30;99.90
26623;DHT22;14254;50.968;5.366;2023-04-25T09:49:47;11.90;99.90
26623;DHT22;14254;50.968;5.366;2023-04-25T09:52:17;12.30;99.90
26623;DHT22;14254;50.968;5.366;2023-04-25T09:54:47;12.70;99.90
26623;DHT22;14254;50.968;5.366;2023-04-25T09:57:16;12.70;99.90
26623;DHT22;14254;50.968;5.366;2023-04-25T09:59:47;13.10;99.90
26623;DHT22;14254;50.968;5.366;2023-04-25T10:02:15;13.50;99.90
26623;DHT22;14254;50.968;5.366;2023-04-25T10:04:41;13.10;99.90
26623;DHT22;14254;50.968;5.366;2023-04-25T10:07:11;12.10;99.90
26623;DHT22;14254;50.968;5.366;2023-04-25T10:09:38;11.60;99.90
26623;DHT22;14254;50.968;5.366;2023-04-25T10:12:08;11.30;99.90
26623;DHT22;14254;50.968;5.366;2023-04-25T10:14:34;11.70;99.90
26623;DHT22;14254;50.968;5.366;2023-04-25T10:17:01;11.30;99.90
26623;DHT22;14254;50.968;5.366;2023-04-25T10:19:27;10.90;99.90
26623;DHT22;14254;50.968;5.366;2023-04-25T10:22:17;10.80;99.90
26623;DHT22;14254;50.968;5.366;2023-04-25T10:24:44;10.90;99.90
26623;DHT22;14254;50.968;5.366;2023-04-25T10:27:12;10.70;99.90
26623;DHT22;14254;50.968;5.366;2023-04-25T10:29:38;10.40;99.90
26623;DHT22;14254;50.968;5.366;2023-04-25T10:32:04;10.10;99.90
26623;DHT22;14254;50.968;5.366;2023-04-25T10:34:41;9.90;99.90
26623;DHT22;14254;50.968;5.366;2023-04-25T10:37:10;10.20;99.90
26623;DHT22;14254;50.968;5.366;2023-04-25T10:39:41;10.80;99.90
26623;DHT22;14254;50.968;5.366;2023-04-25T10:42:08;10.70;99.90
26623;DHT22;14254;50.968;5.366;2023-04-25T10:44:34;10.40;99.90
26623;DHT22;14254;50.968;5.366;2023-04-25T10:47:01;10.20;99.90
26623;DHT22;14254;50.968;5.366;2023-04-25T10:52:18;10.00;99.90
26623;DHT22;14254;50.968;5.366;2023-04-25T10:54:57;9.90;99.90
26623;DHT22;14254;50.968;5.366;2023-04-25T10:57:44;10.00;99.90
26623;DHT22;14254;50.968;5.366;2023-04-25T11:00:18;10.40;99.90
26623;DHT22;14254;50.968;5.366;2023-04-25T11:02:58;10.70;99.90
26623;DHT22;14254;50.968;5.366;2023-04-25T11:05:35;10.40;99.90
26623;DHT22;14254;50.968;5.366;2023-04-25T11:08:02;10.40;99.90
26623;DHT22;14254;50.968;5.366;2023-04-25T11:10:29;10.30;99.90
26623;DHT22;14254;50.968;5.366;2023-04-25T11:12:56;10.40;99.90
26623;DHT22;14254;50.968;5.366;2023-04-25T11:15:22;10.90;99.90
26623;DHT22;14254;50.968;5.366;2023-04-25T11:17:47;11.50;99.90
26623;DHT22;14254;50.968;5.366;2023-04-25T11:20:13;11.80;99.90
26623;DHT22;14254;50.968;5.366;2023-04-25T11:22:41;12.20;99.90
26623;DHT22;14254;50.968;5.366;2023-04-25T11:25:08;12.70;99.90
26623;DHT22;14254;50.968;5.366;2023-04-25T11:27:58;13.10;99.90
26623;DHT22;14254;50.968;5.366;2023-04-25T11:30:24;14.20;99.90
26623;DHT22;14254;50.968;5.366;2023-04-25T11:32:50;13.90;99.90
26623;DHT22;14254;50.968;5.366;2023-04-25T11:35:18;14.30;99.90
26623;DHT22;14254;50.968;5.366;2023-04-25T11:37:44;14.70;99.90
26623;DHT22;14254;50.968;5.366;2023-04-25T11:40:11;16.00;98.20
26623;DHT22;14254;50.968;5.366;2023-04-25T11:42:38;16.90;97.00
26623;DHT22;14254;50.968;5.366;2023-04-25T11:45:05;16.10;95.90
26623;DHT22;14254;50.968;5.366;2023-04-25T11:47:32;17.40;94.30
26623;DHT22;14254;50.968;5.366;2023-04-25T11:49:58;19.60;90.70
26623;DHT22;14254;50.968;5.366;2023-04-25T11:52:35;19.30;84.90
26623;DHT22;14254;50.968;5.366;2023-04-25T11:55:00;21.00;82.50
26623;DHT22;14254;50.968;5.366;2023-04-25T11:57:26;23.70;73.80
26623;DHT22;14254;50.968;5.366;2023-04-25T11:59:52;25.20;63.70
26623;DHT22;14254;50.968;5.366;2023-04-25T12:02:25;26.20;61.60
26623;DHT22;14254;50.968;5.366;2023-04-25T12:04:51;25.80;57.20
26623;DHT22;14254;50.968;5.366;2023-04-25T12:07:16;22.90;59.10
26623;DHT22;14254;50.968;5.366;2023-04-25T12:09:51;20.70;64.10
26623;DHT22;14254;50.968;5.366;2023-04-25T12:12:17;18.70;68.50
26623;DHT22;14254;50.968;5.366;2023-04-25T12:14:47;16.30;71.40
26623;DHT22;14254;50.968;5.366;2023-04-25T12:17:16;14.40;78.10
26623;DHT22;14254;50.968;5.366;2023-04-25T12:19:42;13.10;86.20
26623;DHT22;14254;50.968;5.366;2023-04-25T12:22:23;12.10;93.40
26623;DHT22;14254;50.968;5.366;2023-04-25T12:24:50;11.30;99.90
26623;DHT22;14254;50.968;5.366;2023-04-25T12:27:16;10.80;99.90
26623;DHT22;14254;50.968;5.366;2023-04-25T12:29:51;10.80;99.90
26623;DHT22;14254;50.968;5.366;2023-04-25T12:32:18;10.20;99.90
26623;DHT22;14254;50.968;5.366;2023-04-25T12:34:44;9.90;99.90
26623;DHT22;14254;50.968;5.366;2023-04-25T12:37:10;9.60;99.90
26623;DHT22;14254;50.968;5.366;2023-04-25T12:39:36;9.50;99.90
26623;DHT22;14254;50.968;5.366;2023-04-25T12:42:02;9.50;99.90
26623;DHT22;14254;50.968;5.366;2023-04-25T12:44:28;9.80;99.90
26623;DHT22;14254;50.968;5.366;2023-04-25T12:46:54;9.80;99.90
26623;DHT22;14254;50.968;5.366;2023-04-25T12:49:20;10.00;99.90
26623;DHT22;14254;50.968;5.366;2023-04-25T12:51:46;10.20;99.90
26623;DHT22;14254;50.968;5.366;2023-04-25T12:54:12;10.40;99.90
26623;DHT22;14254;50.968;5.366;2023-04-25T12:56:40;10.90;99.90
26623;DHT22;14254;50.968;5.366;2023-04-25T12:59:06;12.10;99.90
26623;DHT22;14254;50.968;5.366;2023-04-25T13:01:32;12.80;99.90
26623;DHT22;14254;50.968;5.366;2023-04-25T13:03:58;13.10;99.90
26623;DHT22;14254;50.968;5.366;2023-04-25T13:06:24;13.40;99.90
26623;DHT22;14254;50.968;5.366;2023-04-25T13:08:49;15.60;99.90
26623;DHT22;14254;50.968;5.366;2023-04-25T13:11:15;18.80;94.20
26623;DHT22;14254;50.968;5.366;2023-04-25T13:13:41;20.50;84.00
26623;DHT22;14254;50.968;5.366;2023-04-25T13:16:08;20.80;75.50
26623;DHT22;14254;50.968;5.366;2023-04-25T13:18:34;21.90;77.80
26623;DHT22;14254;50.968;5.366;2023-04-25T13:21:00;24.60;68.00
26623;DHT22;14254;50.968;5.366;2023-04-25T13:23:27;22.60;67.70
26623;DHT22;14254;50.968;5.366;2023-04-25T13:25:54;20.70;71.40
26623;DHT22;14254;50.968;5.366;2023-04-25T13:28:20;17.80;79.70
26623;DHT22;14254;50.968;5.366;2023-04-25T13:30:46;14.90;84.60
26623;DHT22;14254;50.968;5.366;2023-04-25T13:33:14;13.70;90.20
26623;DHT22;14254;50.968;5.366;2023-04-25T13:35:40;12.80;91.30
26623;DHT22;14254;50.968;5.366;2023-04-25T13:38:06;12.70;92.10
26623;DHT22;14254;50.968;5.366;2023-04-25T13:40:31;12.80;93.80
26623;DHT22;14254;50.968;5.366;2023-04-25T13:42:57;13.50;93.70
26623;DHT22;14254;50.968;5.366;2023-04-25T13:45:23;14.10;92.70
26623;DHT22;14254;50.968;5.366;2023-04-25T13:47:49;15.70;90.70
26623;DHT22;14254;50.968;5.366;2023-04-25T13:50:15;18.60;83.20
26623;DHT22;14254;50.968;5.366;2023-04-25T13:52:41;22.20;68.60
26623;DHT22;14254;50.968;5.366;2023-04-25T13:55:08;19.70;70.20
26623;DHT22;14254;50.968;5.366;2023-04-25T13:57:34;18.50;76.20
26623;DHT22;14254;50.968;5.366;2023-04-25T14:00:01;18.10;76.80
26623;DHT22;14254;50.968;5.366;2023-04-25T14:02:32;16.20;80.40
26623;DHT22;14254;50.968;5.366;2023-04-25T14:04:58;14.50;86.70
26623;DHT22;14254;50.968;5.366;2023-04-25T14:07:23;12.90;91.80
26623;DHT22;14254;50.968;5.366;2023-04-25T14:09:50;11.90;93.40
26623;DHT22;14254;50.968;5.366;2023-04-25T14:12:16;11.70;95.50
26623;DHT22;14254;50.968;5.366;2023-04-25T14:14:41;11.50;96.10
26623;DHT22;14254;50.968;5.366;2023-04-25T14:17:08;11.50;96.20
26623;DHT22;14254;50.968;5.366;2023-04-25T14:19:34;11.50;96.70
26623;DHT22;14254;50.968;5.366;2023-04-25T14:22:00;11.70;96.60
26623;DHT22;14254;50.968;5.366;2023-04-25T14:24:26;11.80;95.70
26623;DHT22;14254;50.968;5.366;2023-04-25T14:26:51;11.90;95.80
26623;DHT22;14254;50.968;5.366;2023-04-25T14:29:17;12.40;94.90
26623;DHT22;14254;50.968;5.366;2023-04-25T14:31:43;14.50;93.00
26623;DHT22;14254;50.968;5.366;2023-04-25T14:34:08;14.20;92.60
26623;DHT22;14254;50.968;5.366;2023-04-25T14:36:35;13.60;92.80
26623;DHT22;14254;50.968;5.366;2023-04-25T14:39:01;12.60;93.90
26623;DHT22;14254;50.968;5.366;2023-04-25T14:41:27;12.40;95.20
26623;DHT22;14254;50.968;5.366;2023-04-25T14:43:53;12.70;95.70
26623;DHT22;14254;50.968;5.366;2023-04-25T14:46:20;12.50;95.50
26623;DHT22;14254;50.968;5.366;2023-04-25T14:48:46;12.50;95.70
26623;DHT22;14254;50.968;5.366;2023-04-25T14:51:12;13.60;94.20
26623;DHT22;14254;50.968;5.366;2023-04-25T14:53:39;18.10;87.20
26623;DHT22;14254;50.968;5.366;2023-04-25T14:56:05;16.10;90.00
26623;DHT22;14254;50.968;5.366;2023-04-25T14:58:31;14.30;93.00
26623;DHT22;14254;50.968;5.366;2023-04-25T15:00:56;12.90;94.20
26623;DHT22;14254;50.968;5.366;2023-04-25T15:03:22;12.50;95.90
26623;DHT22;14254;50.968;5.366;2023-04-25T15:05:48;12.70;94.80
26623;DHT22;14254;50.968;5.366;2023-04-25T15:08:14;14.20;93.70
26623;DHT22;14254;50.968;5.366;2023-04-25T15:10:39;14.30;93.20
26623;DHT22;14254;50.968;5.366;2023-04-25T15:13:05;13.50;93.40
26623;DHT22;14254;50.968;5.366;2023-04-25T15:15:31;14.20;93.40
26623;DHT22;14254;50.968;5.366;2023-04-25T15:17:57;15.50;92.30
26623;DHT22;14254;50.968;5.366;2023-04-25T15:20:23;15.80;91.20
26623;DHT22;14254;50.968;5.366;2023-04-25T15:22:48;17.00;90.60
26623;DHT22;14254;50.968;5.366;2023-04-25T15:25:15;18.60;86.50
26623;DHT22;14254;50.968;5.366;2023-04-25T15:27:44;19.90;81.90
26623;DHT22;14254;50.968;5.366;2023-04-25T15:30:13;18.10;83.20
26623;DHT22;14254;50.968;5.366;2023-04-25T15:32:41;15.60;88.60
26623;DHT22;14254;50.968;5.366;2023-04-25T15:35:07;13.30;91.80
26623;DHT22;14254;50.968;5.366;2023-04-25T15:37:34;12.80;94.10
26623;DHT22;14254;50.968;5.366;2023-04-25T15:40:02;13.70;94.10
26623;DHT22;14254;50.968;5.366;2023-04-25T15:42:54;13.90;93.40